createdAt,value
2022-09-05T00:00:02.382Z,19.07
2022-09-05T00:02:52.094Z,19.11
2022-09-05T00:05:31.506Z,19.05
2022-09-05T00:08:19.392Z,19.13
2022-09-05T00:11:41.573Z,18.97
2022-09-05T00:13:58.969Z,19.06
2022-09-05T00:16:47.764Z,18.86
2022-09-05T00:24:20.076Z,18.73
2022-09-05T00:24:37.910Z,18.70
2022-09-05T00:25:37.803Z,18.53
2022-09-05T00:28:25.755Z,18.48
2022-09-05T00:31:55.307Z,18.59
2022-09-05T00:34:47.016Z,18.58
2022-09-05T00:37:29.073Z,18.74
2022-09-05T00:40:18.676Z,18.47
2022-09-05T00:42:53.522Z,18.51
2022-09-05T00:45:29.683Z,18.40
2022-09-05T00:48:15.756Z,18.50
2022-09-05T00:50:58.615Z,18.55
2022-09-05T00:53:38.599Z,18.51
2022-09-05T00:56:21.156Z,18.60
2022-09-05T00:59:32.280Z,18.61
2022-09-05T01:02:08.598Z,18.48
2022-09-05T01:04:52.976Z,18.37
2022-09-05T01:07:51.899Z,18.26
2022-09-05T01:10:32.729Z,18.16
2022-09-05T01:13:26.644Z,18.07
2022-09-05T01:16:04.344Z,18.04
2022-09-05T01:18:51.889Z,18.00
2022-09-05T01:21:40.964Z,18.08
2022-09-05T01:24:29.442Z,17.95
2022-09-05T01:27:38.231Z,17.94
2022-09-05T01:30:32.181Z,17.99
2022-09-05T01:33:11.225Z,17.93
2022-09-05T01:36:19.557Z,17.67
2022-09-05T01:39:55.170Z,17.81
2022-09-05T01:41:57.156Z,17.71
2022-09-05T01:44:42.210Z,17.65
2022-09-05T01:47:30.928Z,17.70
2022-09-05T01:50:22.197Z,17.62
2022-09-05T01:53:10.255Z,17.52
2022-09-05T01:56:05.175Z,17.47
2022-09-05T01:58:57.049Z,17.33
2022-09-05T02:01:33.583Z,17.36
2022-09-05T02:04:33.990Z,17.40
2022-09-05T02:07:30.929Z,17.24
2022-09-05T02:10:30.158Z,17.43
2022-09-05T02:13:14.568Z,17.42
2022-09-05T02:15:57.757Z,17.28
2022-09-05T02:18:32.892Z,17.13
2022-09-05T02:21:04.071Z,17.10
2022-09-05T02:26:34.594Z,17.16
2022-09-05T02:29:08.763Z,16.94
2022-09-05T02:31:47.278Z,17.07
2022-09-05T02:34:24.432Z,17.03
2022-09-05T02:37:03.611Z,17.01
2022-09-05T02:45:01.726Z,16.97
2022-09-05T02:45:18.299Z,17.07
2022-09-05T02:45:42.573Z,17.16
2022-09-05T02:48:23.558Z,17.15
2022-09-05T02:57:23.195Z,17.09
2022-09-05T02:57:33.718Z,16.67
2022-09-05T02:57:36.525Z,16.68
2022-09-05T03:00:02.624Z,16.78
2022-09-05T03:02:39.067Z,16.61
2022-09-05T03:05:15.747Z,16.46
2022-09-05T03:08:09.873Z,16.52
2022-09-05T03:11:22.016Z,16.50
2022-09-05T03:14:26.271Z,16.65
2022-09-05T03:17:24.647Z,16.52
2022-09-05T03:20:32.788Z,16.68
2022-09-05T03:23:36.412Z,16.57
2022-09-05T03:26:52.301Z,16.35
2022-09-05T03:29:58.388Z,16.21
2022-09-05T03:33:08.724Z,16.18
2022-09-05T03:36:13.512Z,16.00
2022-09-05T03:39:09.521Z,15.98
2022-09-05T03:41:55.636Z,15.91
2022-09-05T03:44:45.696Z,16.03
2022-09-05T03:47:32.657Z,16.09
2022-09-05T03:54:00.641Z,16.15
2022-09-05T03:57:11.362Z,16.12
2022-09-05T03:57:16.112Z,16.09
2022-09-05T04:00:08.376Z,16.14
2022-09-05T04:07:45.754Z,16.07
2022-09-05T04:08:17.882Z,15.86
2022-09-05T04:08:52.167Z,15.71
2022-09-05T04:11:32.687Z,15.66
2022-09-05T04:14:04.324Z,15.64
2022-09-05T04:16:43.908Z,15.69
2022-09-05T04:19:21.568Z,15.66
2022-09-05T04:21:58.781Z,15.66
2022-09-05T04:24:32.486Z,15.69
2022-09-05T04:27:21.435Z,15.81
2022-09-05T04:30:01.899Z,15.69
2022-09-05T04:32:54.554Z,15.73
2022-09-05T04:35:31.615Z,15.91
2022-09-05T04:38:12.325Z,15.81
2022-09-05T04:40:45.076Z,15.79
2022-09-05T04:43:26.735Z,15.84
2022-09-05T04:46:02.087Z,15.70
2022-09-05T04:48:37.723Z,15.67
2022-09-05T04:51:11.456Z,15.74
2022-09-05T04:54:09.385Z,15.88
2022-09-05T04:56:43.136Z,15.83
2022-09-05T05:01:54.458Z,15.85
2022-09-05T05:06:08.915Z,15.78
2022-09-05T05:06:16.122Z,15.87
2022-09-05T05:08:00.925Z,15.81
2022-09-05T05:13:45.095Z,15.73
2022-09-05T05:17:59.037Z,15.88
2022-09-05T05:18:09.965Z,15.74
2022-09-05T05:19:22.190Z,15.81
2022-09-05T05:21:55.259Z,15.92
2022-09-05T05:24:28.043Z,15.99
2022-09-05T05:27:05.667Z,16.01
2022-09-05T05:29:44.553Z,16.09
2022-09-05T05:32:26.182Z,16.06
2022-09-05T05:35:13.182Z,16.14
2022-09-05T05:37:49.647Z,16.20
2022-09-05T05:40:25.976Z,16.34
2022-09-05T05:43:28.782Z,16.38
2022-09-05T05:46:02.527Z,16.23
2022-09-05T05:48:37.707Z,16.11
2022-09-05T05:52:00.873Z,16.21
2022-09-05T05:54:29.009Z,16.23
2022-09-05T05:57:36.388Z,16.21
2022-09-05T06:00:21.711Z,16.41
2022-09-05T06:03:33.329Z,16.52
2022-09-05T06:06:47.246Z,16.74
2022-09-05T06:14:53.008Z,16.82
2022-09-05T06:14:55.117Z,16.85
2022-09-05T06:16:23.526Z,17.05
2022-09-05T06:19:37.589Z,17.08
2022-09-05T06:22:57.000Z,17.31
2022-09-05T06:25:57.619Z,17.41
2022-09-05T06:28:36.006Z,17.54
2022-09-05T06:31:31.160Z,17.72
2022-09-05T06:34:35.136Z,17.92
2022-09-05T06:37:17.330Z,18.04
2022-09-05T06:40:03.645Z,18.14
2022-09-05T06:42:48.898Z,18.28
2022-09-05T06:45:32.835Z,18.46
2022-09-05T06:48:14.412Z,18.59
2022-09-05T06:51:10.637Z,18.73
2022-09-05T06:54:06.967Z,18.94
2022-09-05T06:57:04.919Z,18.93
2022-09-05T07:00:00.812Z,19.14
2022-09-05T07:02:59.168Z,19.35
2022-09-05T07:05:42.543Z,19.48
2022-09-05T07:08:36.538Z,19.68
2022-09-05T07:11:16.832Z,19.91
2022-09-05T07:14:11.664Z,20.08
2022-09-05T07:16:49.222Z,20.35
2022-09-05T07:19:27.283Z,20.54
2022-09-05T07:22:46.290Z,20.63
2022-09-05T07:25:10.756Z,20.91
2022-09-05T07:28:26.697Z,20.73
2022-09-05T07:30:37.361Z,21.06
2022-09-05T07:33:06.498Z,21.32
2022-09-05T07:35:42.356Z,21.45
2022-09-05T07:38:17.292Z,21.51
2022-09-05T07:40:54.941Z,21.76
2022-09-05T07:43:28.348Z,21.97
2022-09-05T07:46:11.917Z,22.28
2022-09-05T07:48:45.170Z,22.29
2022-09-05T07:56:15.198Z,22.56
2022-09-05T07:56:54.863Z,22.65
2022-09-05T07:57:29.957Z,22.53
2022-09-05T08:00:26.168Z,22.69
2022-09-05T08:02:59.439Z,22.84
2022-09-05T08:05:37.729Z,22.96
2022-09-05T08:08:11.768Z,23.32
2022-09-05T08:11:22.124Z,23.35
2022-09-05T08:13:57.846Z,23.66
2022-09-05T08:16:44.532Z,23.73
2022-09-05T08:19:41.370Z,23.89
2022-09-05T08:22:18.495Z,23.96
2022-09-05T08:24:55.962Z,23.86
2022-09-05T08:27:38.980Z,24.22
2022-09-05T08:30:24.456Z,24.33
2022-09-05T08:33:10.660Z,24.34
2022-09-05T08:35:45.004Z,24.49
2022-09-05T08:38:15.647Z,24.76
2022-09-05T08:40:53.164Z,24.66
2022-09-05T08:45:50.633Z,24.89
2022-09-05T08:46:42.889Z,25.07
2022-09-05T08:49:46.357Z,25.20
2022-09-05T08:52:28.539Z,25.22
2022-09-05T08:55:08.165Z,25.34
2022-09-05T08:58:07.006Z,25.31
2022-09-05T09:00:55.012Z,25.33
2022-09-05T09:03:34.068Z,25.50
2022-09-05T09:07:12.282Z,25.66
2022-09-05T09:09:49.824Z,25.94
2022-09-05T09:12:53.506Z,26.07
2022-09-05T09:15:30.266Z,26.13
2022-09-05T09:18:01.103Z,26.28
2022-09-05T09:20:53.004Z,26.48
2022-09-05T09:23:42.812Z,26.50
2022-09-05T09:26:18.022Z,26.68
2022-09-05T09:28:54.239Z,26.78
2022-09-05T09:31:38.288Z,26.77
2022-09-05T09:34:23.298Z,26.73
2022-09-05T09:37:50.895Z,26.68
2022-09-05T09:40:29.124Z,26.76
2022-09-05T09:43:06.833Z,27.03
2022-09-05T09:45:56.889Z,27.20
2022-09-05T09:49:04.628Z,26.69
2022-09-05T09:52:07.176Z,27.15
2022-09-05T09:55:29.315Z,27.39
2022-09-05T09:58:20.658Z,27.08
2022-09-05T10:00:54.009Z,27.44
2022-09-05T10:10:38.053Z,27.97
2022-09-05T10:10:49.223Z,28.24
2022-09-05T10:11:09.533Z,28.29
2022-09-05T10:13:27.267Z,28.54
2022-09-05T10:16:32.040Z,28.65
2022-09-05T10:22:44.529Z,28.94
2022-09-05T10:25:44.682Z,28.48
2022-09-05T10:28:36.742Z,28.80
2022-09-05T10:33:33.760Z,27.65
2022-09-05T10:35:15.023Z,28.10
2022-09-05T10:37:11.850Z,28.13
2022-09-05T10:39:58.923Z,28.53
2022-09-05T10:42:43.421Z,28.40
2022-09-05T10:45:38.597Z,28.19
2022-09-05T10:48:15.849Z,28.79
2022-09-05T10:50:47.457Z,28.94
2022-09-05T10:53:39.063Z,29.71
2022-09-05T10:56:15.198Z,29.97
2022-09-05T11:01:33.441Z,29.64
2022-09-05T11:02:30.219Z,29.46
2022-09-05T11:04:50.212Z,28.03
2022-09-05T11:07:27.931Z,28.84
2022-09-05T11:10:06.045Z,28.57
2022-09-05T11:13:06.777Z,28.85
2022-09-05T11:16:03.814Z,29.05
2022-09-05T11:18:55.453Z,29.52
2022-09-05T11:21:31.503Z,29.07
2022-09-05T11:24:08.888Z,29.28
2022-09-05T11:26:47.677Z,30.01
2022-09-05T11:29:24.188Z,29.21
2022-09-05T11:37:35.851Z,28.78
2022-09-05T11:39:48.981Z,27.91
2022-09-05T11:39:57.097Z,28.06
2022-09-05T11:42:09.999Z,28.35
2022-09-05T11:44:57.897Z,27.91
2022-09-05T11:48:13.623Z,28.24
2022-09-05T11:51:11.852Z,28.40
2022-09-05T11:53:58.685Z,29.03
2022-09-05T11:57:32.431Z,29.78
2022-09-05T12:00:31.188Z,30.01
2022-09-05T12:03:59.704Z,30.30
2022-09-05T12:06:59.539Z,30.76
2022-09-05T12:09:53.591Z,29.88
2022-09-05T12:12:41.585Z,29.70
2022-09-05T12:15:26.776Z,29.30
2022-09-05T12:18:18.934Z,29.55
2022-09-05T12:20:57.671Z,29.66
2022-09-05T12:24:03.087Z,28.88
2022-09-05T12:27:38.930Z,29.50
2022-09-05T12:29:36.619Z,29.66
2022-09-05T12:34:03.454Z,29.80
2022-09-05T12:36:10.331Z,29.54
2022-09-05T12:40:58.197Z,29.78
2022-09-05T12:41:42.900Z,29.58
2022-09-05T12:44:41.157Z,30.62
2022-09-05T12:47:19.311Z,31.03
2022-09-05T12:50:02.565Z,31.34
2022-09-05T12:52:43.560Z,30.12
2022-09-05T12:55:26.293Z,30.10
2022-09-05T13:01:33.347Z,29.87
2022-09-05T13:03:10.869Z,29.57
2022-09-05T13:04:15.674Z,30.57
2022-09-05T13:06:41.366Z,30.74
2022-09-05T13:09:19.716Z,31.45
2022-09-05T13:14:53.864Z,31.16
2022-09-05T13:15:14.178Z,31.09
2022-09-05T13:17:52.586Z,30.89
2022-09-05T13:20:34.356Z,30.94
2022-09-05T13:23:11.584Z,29.72
2022-09-05T13:25:47.019Z,29.67
2022-09-05T13:28:21.450Z,30.54
2022-09-05T13:37:58.916Z,31.50
2022-09-05T13:38:07.413Z,31.45
2022-09-05T13:38:20.331Z,32.02
2022-09-05T13:39:32.145Z,32.45
2022-09-05T13:42:04.817Z,33.11
2022-09-05T13:44:46.639Z,32.56
2022-09-05T13:47:30.921Z,32.84
2022-09-05T13:50:22.563Z,32.71
2022-09-05T13:52:56.803Z,33.01
2022-09-05T13:55:37.317Z,30.59
2022-09-05T13:58:11.426Z,31.46
2022-09-05T14:01:20.101Z,31.54
2022-09-05T14:07:59.873Z,32.38
2022-09-05T14:10:58.280Z,32.61
2022-09-05T14:13:32.494Z,33.08
2022-09-05T14:16:08.119Z,33.36
2022-09-05T14:19:01.046Z,33.07
2022-09-05T14:21:31.869Z,33.11
2022-09-05T14:24:06.310Z,33.45
2022-09-05T14:26:45.519Z,33.12
2022-09-05T14:29:22.721Z,33.31
2022-09-05T14:37:37.454Z,33.14
2022-09-05T14:37:41.899Z,33.64
2022-09-05T14:38:09.286Z,33.85
2022-09-05T14:41:11.692Z,34.62
2022-09-05T14:44:16.259Z,34.78
2022-09-05T14:50:07.438Z,33.65
2022-09-05T14:52:43.632Z,34.05
2022-09-05T15:02:45.724Z,34.14
2022-09-05T15:02:52.510Z,32.44
2022-09-05T15:06:42.039Z,34.20
2022-09-05T15:12:16.998Z,34.18
2022-09-05T15:12:33.022Z,34.78
2022-09-05T15:15:39.402Z,33.20
2022-09-05T15:18:12.134Z,32.56
2022-09-05T15:20:44.805Z,31.73
2022-09-05T15:23:31.554Z,32.85
2022-09-05T15:26:05.488Z,33.66
2022-09-05T15:28:37.470Z,34.39
2022-09-05T15:31:10.601Z,35.15
2022-09-05T15:33:40.945Z,34.87
2022-09-05T15:36:13.938Z,34.37
2022-09-05T15:38:54.416Z,34.09
2022-09-05T15:41:28.628Z,34.73
2022-09-05T15:44:02.829Z,35.43
2022-09-05T15:46:42.631Z,36.55
2022-09-05T15:49:14.495Z,36.11
2022-09-05T15:51:50.076Z,36.10
2022-09-05T15:54:37.527Z,35.85
2022-09-05T15:57:17.596Z,35.71
2022-09-05T15:59:49.782Z,35.70
2022-09-05T16:02:26.586Z,35.60
2022-09-05T16:10:30.533Z,34.68
2022-09-05T16:10:45.067Z,34.76
2022-09-05T16:14:25.756Z,34.40
2022-09-05T16:23:13.514Z,34.70
2022-09-05T16:23:20.495Z,34.28
2022-09-05T16:23:26.991Z,35.06
2022-09-05T16:25:41.186Z,34.91
2022-09-05T16:28:17.760Z,35.18
2022-09-05T16:30:46.604Z,35.48
2022-09-05T16:33:19.078Z,35.76
2022-09-05T16:35:54.468Z,35.94
2022-09-05T16:38:49.534Z,35.52
2022-09-05T16:41:24.569Z,35.63
2022-09-05T16:44:00.039Z,35.78
2022-09-05T16:46:38.154Z,36.48
2022-09-05T16:49:12.778Z,36.58
2022-09-05T16:51:45.236Z,36.64
2022-09-05T16:54:28.017Z,36.27
2022-09-05T16:57:02.933Z,36.33
2022-09-05T16:59:38.128Z,36.24
2022-09-05T17:02:10.475Z,36.20
2022-09-05T17:05:03.961Z,36.35
2022-09-05T17:07:52.044Z,35.82
2022-09-05T17:10:25.099Z,34.29
2022-09-05T17:12:54.503Z,33.16
2022-09-05T17:15:34.515Z,32.73
2022-09-05T17:18:19.028Z,32.33
2022-09-05T17:20:53.606Z,32.28
2022-09-05T17:29:18.885Z,32.05
2022-09-05T17:29:28.325Z,31.72
2022-09-05T17:32:51.668Z,31.31
2022-09-05T17:35:55.922Z,31.04
2022-09-05T17:38:44.449Z,30.86
2022-09-05T17:42:02.416Z,30.63
2022-09-05T17:44:45.721Z,30.61
2022-09-05T17:47:35.435Z,30.53
2022-09-05T17:50:16.695Z,30.19
2022-09-05T17:53:25.941Z,30.23
2022-09-05T17:56:29.552Z,30.02
2022-09-05T17:59:07.395Z,30.07
2022-09-05T18:01:36.974Z,29.77
2022-09-05T18:04:18.098Z,29.59
2022-09-05T18:07:26.338Z,29.22
2022-09-05T18:10:15.239Z,29.18
2022-09-05T18:13:13.457Z,28.82
2022-09-05T18:16:10.956Z,28.97
2022-09-05T18:19:33.510Z,28.77
2022-09-05T18:21:50.539Z,28.68
2022-09-05T18:24:33.435Z,28.39
2022-09-05T18:27:39.372Z,28.38
2022-09-05T18:30:15.357Z,28.41
2022-09-05T18:32:47.370Z,28.19
2022-09-05T18:35:37.833Z,27.79
2022-09-05T18:38:50.802Z,27.76
2022-09-05T18:41:24.903Z,27.81
2022-09-05T18:44:13.870Z,27.75
2022-09-05T18:46:51.594Z,27.44
2022-09-05T18:50:21.835Z,27.56
2022-09-05T18:52:23.434Z,27.35
2022-09-05T18:55:34.036Z,27.09
2022-09-05T18:57:58.947Z,27.19
2022-09-05T19:00:46.662Z,26.94
2022-09-05T19:03:25.167Z,26.97
2022-09-05T19:06:36.468Z,27.00
2022-09-05T19:08:56.252Z,26.98
2022-09-05T19:11:32.948Z,26.63
2022-09-05T19:14:26.320Z,26.58
2022-09-05T19:17:03.941Z,26.09
2022-09-05T19:20:32.694Z,26.22
2022-09-05T19:23:11.272Z,26.02
2022-09-05T19:25:44.002Z,26.07
2022-09-05T19:35:21.595Z,25.77
2022-09-05T19:37:08.194Z,25.79
2022-09-05T19:37:15.603Z,25.75
2022-09-05T19:37:30.212Z,25.52
2022-09-05T19:44:11.112Z,25.50
2022-09-05T19:47:35.189Z,25.22
2022-09-05T19:47:35.530Z,25.31
2022-09-05T19:48:28.948Z,25.15
2022-09-05T19:50:59.026Z,25.18
2022-09-05T19:53:27.524Z,25.35
2022-09-05T19:55:58.520Z,25.16
2022-09-05T19:58:26.895Z,25.16
2022-09-05T20:01:04.385Z,25.24
2022-09-05T20:03:41.191Z,24.94
2022-09-05T20:06:30.266Z,25.02
2022-09-05T20:09:16.288Z,24.90
2022-09-05T20:11:50.135Z,24.92
2022-09-05T20:14:24.646Z,24.82
2022-09-05T20:16:57.456Z,24.65
2022-09-05T20:19:31.088Z,24.64
2022-09-05T20:22:46.725Z,24.52
2022-09-05T20:24:56.739Z,24.33
2022-09-05T20:27:28.303Z,24.28
2022-09-05T20:30:00.200Z,24.25
2022-09-05T20:32:40.040Z,23.89
2022-09-05T20:37:17.100Z,23.99
2022-09-05T20:43:15.704Z,23.83
2022-09-05T20:43:35.018Z,23.83
2022-09-05T20:44:22.531Z,23.51
2022-09-05T20:50:53.971Z,23.76
2022-09-05T20:54:15.602Z,23.50
2022-09-05T20:54:20.156Z,23.64
2022-09-05T20:55:42.319Z,23.35
2022-09-05T20:58:13.788Z,23.36
2022-09-05T21:01:21.732Z,23.25
2022-09-05T21:03:45.268Z,23.23
2022-09-05T21:06:23.283Z,23.23
2022-09-05T21:08:56.268Z,23.10
2022-09-05T21:11:32.491Z,23.29
2022-09-05T21:14:04.032Z,23.17
2022-09-05T21:16:35.820Z,23.19
2022-09-05T21:19:04.056Z,23.22
2022-09-05T21:21:34.979Z,23.42
2022-09-05T21:24:17.360Z,23.19
2022-09-05T21:26:49.980Z,23.25
2022-09-05T21:29:33.166Z,22.92
2022-09-05T21:32:07.921Z,22.78
2022-09-05T21:34:45.300Z,22.80
2022-09-05T21:37:16.132Z,22.79
2022-09-05T21:40:00.253Z,23.04
2022-09-05T21:46:31.672Z,23.03
2022-09-05T21:47:41.945Z,22.95
2022-09-05T21:48:10.703Z,22.93
2022-09-05T21:50:41.686Z,22.70
2022-09-05T21:54:36.550Z,22.75
2022-09-05T21:59:25.012Z,22.65
2022-09-05T21:59:27.446Z,22.68
2022-09-05T22:01:54.703Z,22.57
2022-09-05T22:04:24.726Z,22.78
2022-09-05T22:06:54.371Z,22.76
2022-09-05T22:09:25.096Z,22.77
2022-09-05T22:11:55.045Z,22.63
2022-09-05T22:14:28.756Z,22.54
2022-09-05T22:17:01.568Z,22.51
2022-09-05T22:19:37.796Z,22.44
2022-09-05T22:22:16.669Z,22.52
2022-09-05T22:24:51.463Z,22.21
2022-09-05T22:27:23.741Z,22.28
2022-09-05T22:29:52.614Z,22.18
2022-09-05T22:32:28.563Z,22.03
2022-09-05T22:35:27.977Z,21.94
2022-09-05T22:37:55.288Z,21.82
2022-09-05T22:40:32.465Z,22.05
2022-09-05T22:43:06.111Z,22.10
2022-09-05T22:45:39.342Z,22.05
2022-09-05T22:48:12.668Z,21.96
2022-09-05T22:50:44.304Z,21.99
2022-09-05T22:53:13.061Z,21.80
2022-09-05T22:55:48.645Z,21.53
2022-09-05T22:58:23.545Z,21.58
2022-09-05T23:00:54.037Z,21.50
2022-09-05T23:03:24.640Z,21.36
2022-09-05T23:05:54.102Z,21.19
2022-09-05T23:08:22.483Z,21.24
2022-09-05T23:10:52.698Z,21.17
2022-09-05T23:13:22.786Z,21.42
2022-09-05T23:15:51.538Z,21.39
2022-09-05T23:18:21.347Z,21.44
2022-09-05T23:20:50.066Z,21.29
2022-09-05T23:23:18.981Z,21.26
2022-09-05T23:25:48.190Z,21.02
2022-09-05T23:28:16.434Z,21.14
2022-09-05T23:30:47.028Z,21.09
2022-09-05T23:33:15.564Z,21.13
2022-09-05T23:35:43.626Z,21.09
2022-09-05T23:38:12.911Z,20.99
2022-09-05T23:40:41.610Z,21.01
2022-09-05T23:43:10.212Z,20.85
2022-09-05T23:45:38.529Z,20.80
2022-09-05T23:48:08.093Z,20.94
2022-09-05T23:50:36.608Z,20.72
2022-09-05T23:53:05.958Z,20.60
2022-09-05T23:55:34.877Z,20.76
2022-09-05T23:58:03.292Z,20.55
